createdAt,value
2022-08-17T00:01:52.136Z,3.90
2022-08-17T00:04:21.619Z,4.05
2022-08-17T00:06:53.464Z,4.07
2022-08-17T00:09:21.794Z,4.20
2022-08-17T00:12:41.839Z,4.10
2022-08-17T00:14:39.532Z,3.95
2022-08-17T00:17:08.077Z,4.35
2022-08-17T00:19:36.444Z,4.28
2022-08-17T00:22:31.706Z,4.20
2022-08-17T00:24:55.931Z,4.10
2022-08-17T00:27:24.374Z,4.20
2022-08-17T00:29:52.752Z,4.07
2022-08-17T00:33:15.239Z,4.00
2022-08-17T00:35:14.127Z,4.10
2022-08-17T00:37:43.879Z,4.25
2022-08-17T00:40:15.283Z,4.95
2022-08-17T00:42:45.316Z,4.38
2022-08-17T00:45:16.199Z,4.30
2022-08-17T00:47:45.226Z,4.28
2022-08-17T00:50:17.536Z,4.20
2022-08-17T00:52:53.567Z,4.53
2022-08-17T00:55:24.038Z,4.00
2022-08-17T00:57:55.672Z,4.28
2022-08-17T01:00:28.311Z,3.78
2022-08-17T01:03:00.259Z,3.97
2022-08-17T01:05:31.253Z,3.85
2022-08-17T01:08:03.622Z,4.18
2022-08-17T01:11:00.627Z,4.07
2022-08-17T01:13:27.831Z,4.18
2022-08-17T01:16:00.198Z,4.25
2022-08-17T01:18:29.293Z,4.10
2022-08-17T01:20:59.932Z,3.88
2022-08-17T01:23:30.557Z,4.07
2022-08-17T01:26:02.498Z,4.20
2022-08-17T01:28:53.778Z,4.10
2022-08-17T01:31:25.958Z,4.20
2022-08-17T01:33:54.631Z,4.38
2022-08-17T01:36:23.054Z,4.45
2022-08-17T01:38:52.964Z,4.15
2022-08-17T01:41:23.987Z,4.47
2022-08-17T01:43:56.574Z,4.00
2022-08-17T01:46:27.319Z,4.50
2022-08-17T01:48:57.940Z,4.28
2022-08-17T01:51:29.417Z,4.10
2022-08-17T01:54:01.754Z,4.28
2022-08-17T01:56:31.844Z,3.90
2022-08-17T01:59:00.197Z,4.40
2022-08-17T02:01:31.833Z,4.63
2022-08-17T02:04:01.925Z,4.38
2022-08-17T02:06:53.787Z,4.47
2022-08-17T02:09:22.284Z,4.40
2022-08-17T02:11:52.370Z,4.18
2022-08-17T02:14:22.831Z,4.30
2022-08-17T02:16:51.390Z,4.13
2022-08-17T02:19:19.845Z,3.88
2022-08-17T02:21:50.675Z,4.20
2022-08-17T02:24:58.499Z,4.30
2022-08-17T02:27:12.755Z,4.43
2022-08-17T02:29:41.123Z,4.38
2022-08-17T02:32:28.243Z,3.92
2022-08-17T02:34:57.373Z,4.15
2022-08-17T02:37:26.557Z,4.20
2022-08-17T02:39:58.357Z,4.50
2022-08-17T02:42:29.202Z,4.35
2022-08-17T02:44:57.607Z,4.03
2022-08-17T02:47:26.923Z,4.05
2022-08-17T02:49:55.995Z,3.97
2022-08-17T02:52:42.893Z,4.35
2022-08-17T02:55:15.869Z,3.85
2022-08-17T02:57:44.533Z,4.10
2022-08-17T03:00:16.296Z,4.20
2022-08-17T03:02:46.019Z,4.72
2022-08-17T03:05:17.539Z,3.90
2022-08-17T03:07:45.942Z,4.20
2022-08-17T03:10:16.515Z,4.22
2022-08-17T03:12:46.436Z,4.30
2022-08-17T03:15:19.294Z,4.20
2022-08-17T03:17:48.262Z,4.10
2022-08-17T03:20:17.472Z,4.32
2022-08-17T03:22:53.511Z,3.92
2022-08-17T03:25:25.675Z,4.45
2022-08-17T03:27:54.567Z,4.38
2022-08-17T03:30:24.314Z,4.25
2022-08-17T03:32:56.294Z,4.03
2022-08-17T03:35:27.425Z,4.20
2022-08-17T03:38:00.754Z,4.07
2022-08-17T03:40:55.841Z,4.00
2022-08-17T03:43:22.129Z,3.92
2022-08-17T03:46:27.384Z,4.55
2022-08-17T03:49:14.598Z,4.30
2022-08-17T03:52:00.327Z,4.03
2022-08-17T03:54:46.423Z,4.43
2022-08-17T03:57:16.508Z,4.22
2022-08-17T03:59:45.343Z,4.10
2022-08-17T04:02:18.865Z,4.30
2022-08-17T04:04:50.925Z,4.50
2022-08-17T04:07:20.646Z,4.32
2022-08-17T04:09:49.828Z,4.47
2022-08-17T04:12:21.507Z,4.60
2022-08-17T04:14:53.740Z,4.50
2022-08-17T04:17:24.723Z,4.72
2022-08-17T04:19:53.808Z,4.57
2022-08-17T04:22:31.938Z,4.25
2022-08-17T04:25:09.035Z,4.72
2022-08-17T04:27:39.006Z,4.78
2022-08-17T04:30:08.691Z,4.30
2022-08-17T04:33:10.466Z,4.03
2022-08-17T04:35:41.350Z,4.47
2022-08-17T04:38:12.077Z,4.32
2022-08-17T04:40:58.164Z,4.60
2022-08-17T04:43:32.450Z,4.45
2022-08-17T04:46:04.795Z,4.53
2022-08-17T04:48:37.531Z,4.65
2022-08-17T04:51:10.441Z,4.40
2022-08-17T04:53:40.310Z,4.50
2022-08-17T04:56:11.867Z,4.70
2022-08-17T04:58:47.973Z,4.97
2022-08-17T05:01:23.470Z,4.43
2022-08-17T05:03:52.997Z,4.97
2022-08-17T05:06:21.725Z,4.55
2022-08-17T05:08:50.433Z,4.90
2022-08-17T05:11:19.000Z,4.20
2022-08-17T05:13:50.360Z,5.30
2022-08-17T05:16:20.256Z,5.00
2022-08-17T05:18:48.802Z,4.70
2022-08-17T05:21:18.256Z,4.75
2022-08-17T05:23:54.729Z,4.25
2022-08-17T05:26:26.752Z,4.80
2022-08-17T05:29:00.583Z,4.85
2022-08-17T05:31:31.931Z,4.53
2022-08-17T05:34:00.409Z,4.57
2022-08-17T05:36:41.622Z,4.82
2022-08-17T05:39:16.523Z,4.57
2022-08-17T05:41:47.264Z,4.80
2022-08-17T05:44:17.744Z,5.13
2022-08-17T05:46:51.018Z,4.80
2022-08-17T05:49:24.373Z,4.60
2022-08-17T05:52:19.849Z,4.80
2022-08-17T05:55:03.968Z,5.07
2022-08-17T05:57:47.477Z,4.93
2022-08-17T06:00:30.556Z,4.82
2022-08-17T06:03:23.647Z,4.97
2022-08-17T06:06:01.474Z,5.00
2022-08-17T06:08:39.711Z,4.53
2022-08-17T06:11:19.998Z,5.20
2022-08-17T06:14:02.831Z,5.20
2022-08-17T06:16:38.780Z,4.85
2022-08-17T06:19:14.087Z,5.00
2022-08-17T06:21:47.616Z,4.43
2022-08-17T06:24:30.075Z,4.80
2022-08-17T06:27:07.810Z,4.82
2022-08-17T06:29:44.041Z,4.75
2022-08-17T06:32:14.604Z,4.80
2022-08-17T06:34:44.822Z,5.13
2022-08-17T06:37:33.545Z,4.95
2022-08-17T06:40:19.173Z,4.72
2022-08-17T06:43:05.792Z,4.80
2022-08-17T06:45:38.403Z,5.10
2022-08-17T06:48:14.292Z,4.82
2022-08-17T06:50:49.114Z,5.75
2022-08-17T06:53:25.272Z,6.60
2022-08-17T06:55:59.969Z,6.88
2022-08-17T06:58:33.456Z,6.68
2022-08-17T07:01:07.143Z,6.63
2022-08-17T07:03:42.832Z,6.60
2022-08-17T07:06:15.807Z,7.10
2022-08-17T07:08:55.309Z,6.70
2022-08-17T07:11:29.191Z,6.55
2022-08-17T07:14:08.395Z,7.22
2022-08-17T07:16:42.331Z,6.85
2022-08-17T07:19:12.142Z,6.47
2022-08-17T07:21:51.746Z,7.20
2022-08-17T07:24:37.419Z,7.32
2022-08-17T07:27:17.576Z,5.90
2022-08-17T07:29:50.749Z,6.35
2022-08-17T07:32:23.870Z,6.07
2022-08-17T07:35:11.317Z,6.20
2022-08-17T07:37:41.095Z,5.78
2022-08-17T07:40:27.160Z,5.80
2022-08-17T07:43:18.740Z,6.10
2022-08-17T07:46:30.576Z,6.22
2022-08-17T07:49:18.110Z,6.13
2022-08-17T07:51:59.964Z,6.45
2022-08-17T07:54:43.913Z,6.13
2022-08-17T07:57:32.694Z,6.53
2022-08-17T08:00:19.483Z,5.90
2022-08-17T08:03:16.132Z,5.95
2022-08-17T08:05:54.016Z,5.80
2022-08-17T08:08:42.475Z,5.97
2022-08-17T08:11:12.785Z,5.50
2022-08-17T08:13:45.187Z,5.82
2022-08-17T08:16:21.045Z,5.15
2022-08-17T08:18:56.723Z,5.88
2022-08-17T08:21:37.651Z,5.22
2022-08-17T08:24:34.905Z,5.10
2022-08-17T08:27:13.966Z,5.32
2022-08-17T08:29:49.382Z,5.20
2022-08-17T08:32:24.951Z,4.90
2022-08-17T08:35:03.381Z,5.75
2022-08-17T08:37:44.366Z,5.75
2022-08-17T08:40:36.464Z,5.07
2022-08-17T08:43:18.323Z,5.53
2022-08-17T08:45:56.765Z,5.50
2022-08-17T08:48:55.717Z,5.60
2022-08-17T08:51:36.304Z,5.40
2022-08-17T08:54:12.831Z,5.07
2022-08-17T08:57:04.984Z,4.90
2022-08-17T08:59:44.242Z,4.78
2022-08-17T09:02:24.034Z,5.30
2022-08-17T09:05:20.359Z,5.00
2022-08-17T09:07:57.405Z,4.75
2022-08-17T09:10:29.504Z,4.82
2022-08-17T09:13:10.184Z,5.65
2022-08-17T09:15:45.585Z,5.22
2022-08-17T09:19:02.934Z,5.75
2022-08-17T09:21:15.549Z,4.82
2022-08-17T09:23:59.792Z,4.63
2022-08-17T09:26:32.522Z,4.25
2022-08-17T09:29:07.406Z,4.53
2022-08-17T09:31:47.057Z,4.30
2022-08-17T09:34:21.370Z,5.40
2022-08-17T09:37:03.786Z,4.55
2022-08-17T09:39:37.662Z,4.40
2022-08-17T09:42:13.133Z,4.18
2022-08-17T09:44:50.501Z,3.88
2022-08-17T09:47:30.658Z,3.80
2022-08-17T09:50:07.417Z,3.38
2022-08-17T09:52:36.534Z,3.65
2022-08-17T09:55:08.073Z,3.08
2022-08-17T09:57:52.345Z,3.63
2022-08-17T10:00:27.791Z,3.40
2022-08-17T10:03:24.265Z,3.33
2022-08-17T10:06:00.174Z,2.67
2022-08-17T10:08:38.042Z,2.75
2022-08-17T10:11:18.641Z,3.00
2022-08-17T10:13:58.743Z,2.78
2022-08-17T10:16:37.444Z,3.00
2022-08-17T10:19:15.333Z,2.80
2022-08-17T10:22:14.622Z,2.90
2022-08-17T10:25:22.149Z,3.10
2022-08-17T10:27:56.104Z,2.72
2022-08-17T10:30:27.705Z,2.55
2022-08-17T10:33:01.253Z,2.72
2022-08-17T10:35:43.049Z,3.10
2022-08-17T10:38:38.365Z,2.90
2022-08-17T10:41:28.303Z,2.67
2022-08-17T10:44:39.802Z,3.13
2022-08-17T10:47:05.127Z,2.70
2022-08-17T10:49:38.878Z,2.70
2022-08-17T10:52:52.601Z,2.60
2022-08-17T10:55:21.571Z,2.83
2022-08-17T10:57:51.304Z,2.83
2022-08-17T11:00:50.796Z,2.85
2022-08-17T11:03:23.781Z,2.65
2022-08-17T11:06:01.376Z,2.92
2022-08-17T11:08:54.295Z,2.58
2022-08-17T11:11:47.553Z,2.75
2022-08-17T11:14:34.985Z,2.70
2022-08-17T11:17:29.366Z,2.90
2022-08-17T11:20:29.278Z,5.43
2022-08-17T11:23:21.928Z,4.07
2022-08-17T11:25:54.911Z,3.60
2022-08-17T11:28:26.966Z,3.10
2022-08-17T11:30:58.288Z,2.97
2022-08-17T11:33:59.934Z,3.05
2022-08-17T11:36:39.961Z,2.85
2022-08-17T11:39:33.583Z,2.92
2022-08-17T11:42:12.004Z,2.70
2022-08-17T11:44:52.890Z,2.92
2022-08-17T11:48:09.040Z,2.70
2022-08-17T11:51:07.072Z,2.58
2022-08-17T11:57:00.254Z,3.20
2022-08-17T12:00:01.650Z,2.92
2022-08-17T12:02:35.289Z,2.95
2022-08-17T12:05:25.417Z,2.67
2022-08-17T12:08:02.351Z,2.50
2022-08-17T12:10:34.437Z,2.50
2022-08-17T12:13:08.146Z,3.00
2022-08-17T12:15:42.542Z,3.03
2022-08-17T12:18:20.911Z,2.75
2022-08-17T12:21:04.419Z,2.85
2022-08-17T12:23:41.843Z,2.85
2022-08-17T12:26:17.772Z,2.92
2022-08-17T12:28:48.080Z,2.67
2022-08-17T12:31:23.088Z,3.25
2022-08-17T12:33:53.026Z,2.80
2022-08-17T12:36:29.659Z,2.60
2022-08-17T12:39:14.058Z,3.03
2022-08-17T12:41:50.283Z,3.28
2022-08-17T12:44:22.266Z,3.00
2022-08-17T12:46:56.044Z,3.10
2022-08-17T12:49:33.318Z,3.67
2022-08-17T12:52:13.195Z,3.17
2022-08-17T12:54:48.045Z,3.25
2022-08-17T12:57:18.991Z,2.92
2022-08-17T12:59:51.566Z,3.00
2022-08-17T13:02:29.216Z,2.95
2022-08-17T13:04:59.762Z,2.83
2022-08-17T13:07:30.326Z,2.78
2022-08-17T13:09:58.738Z,3.22
2022-08-17T13:12:32.134Z,3.00
2022-08-17T13:15:01.334Z,3.10
2022-08-17T13:17:34.804Z,3.03
2022-08-17T13:20:06.245Z,3.20
2022-08-17T13:22:34.691Z,2.78
2022-08-17T13:25:07.477Z,3.30
2022-08-17T13:27:36.404Z,3.28
2022-08-17T13:30:12.592Z,3.10
2022-08-17T13:32:47.302Z,3.15
2022-08-17T13:35:50.699Z,3.60
2022-08-17T13:38:41.973Z,3.70
2022-08-17T13:41:31.398Z,3.05
2022-08-17T13:43:59.801Z,3.45
2022-08-17T13:46:33.428Z,3.55
2022-08-17T13:49:06.922Z,3.20
2022-08-17T13:51:37.304Z,3.35
2022-08-17T13:54:24.501Z,3.50
2022-08-17T13:57:02.072Z,2.95
2022-08-17T13:59:54.929Z,3.88
2022-08-17T14:02:27.644Z,3.72
2022-08-17T14:05:00.742Z,3.65
2022-08-17T14:07:33.914Z,3.38
2022-08-17T14:10:06.174Z,3.50
2022-08-17T14:12:35.921Z,3.50
2022-08-17T14:15:04.699Z,3.35
2022-08-17T14:17:38.467Z,3.25
2022-08-17T14:20:12.266Z,3.47
2022-08-17T14:22:44.277Z,3.58
2022-08-17T14:25:15.700Z,3.92
2022-08-17T14:27:52.916Z,3.70
2022-08-17T14:30:24.333Z,3.60
2022-08-17T14:32:53.280Z,3.60
2022-08-17T14:35:24.578Z,3.45
2022-08-17T14:37:53.751Z,3.30
2022-08-17T14:40:24.950Z,3.17
2022-08-17T14:42:55.378Z,3.17
2022-08-17T14:45:32.003Z,3.58
2022-08-17T14:48:02.819Z,2.92
2022-08-17T14:50:35.379Z,3.25
2022-08-17T14:53:04.699Z,3.50
2022-08-17T14:55:33.707Z,3.30
2022-08-17T14:58:04.032Z,3.55
2022-08-17T15:00:33.270Z,3.67
2022-08-17T15:03:02.736Z,3.25
2022-08-17T15:05:34.749Z,3.42
2022-08-17T15:08:04.697Z,3.55
2022-08-17T15:10:33.852Z,3.97
2022-08-17T15:13:02.453Z,3.92
2022-08-17T15:15:30.981Z,3.90
2022-08-17T15:18:00.221Z,4.25
2022-08-17T15:20:31.577Z,4.28
2022-08-17T15:23:00.329Z,4.35
2022-08-17T15:25:31.918Z,3.70
2022-08-17T15:28:01.548Z,3.35
2022-08-17T15:30:40.447Z,3.85
2022-08-17T15:33:08.799Z,3.38
2022-08-17T15:35:42.919Z,3.50
2022-08-17T15:38:13.124Z,3.92
2022-08-17T15:40:45.158Z,3.70
2022-08-17T15:43:16.022Z,4.10
2022-08-17T15:45:44.631Z,3.53
2022-08-17T15:48:40.734Z,3.60
2022-08-17T15:51:16.047Z,3.67
2022-08-17T15:53:46.489Z,3.40
2022-08-17T15:56:16.306Z,3.30
2022-08-17T15:58:46.792Z,3.35
2022-08-17T16:01:18.761Z,3.25
2022-08-17T16:04:06.895Z,3.97
2022-08-17T16:06:55.711Z,3.42
2022-08-17T16:09:27.081Z,3.38
2022-08-17T16:11:56.250Z,3.72
2022-08-17T16:14:32.335Z,3.40
2022-08-17T16:17:03.571Z,3.25
2022-08-17T16:19:32.590Z,3.53
2022-08-17T16:22:02.421Z,3.72
2022-08-17T16:24:31.524Z,3.30
2022-08-17T16:27:00.132Z,3.47
2022-08-17T16:29:28.807Z,3.75
2022-08-17T16:31:57.519Z,3.28
2022-08-17T16:34:26.487Z,3.55
2022-08-17T16:36:56.446Z,3.35
2022-08-17T16:39:29.250Z,3.28
2022-08-17T16:41:58.481Z,3.45
2022-08-17T16:44:32.260Z,3.20
2022-08-17T16:47:01.038Z,3.50
2022-08-17T16:49:37.130Z,3.03
2022-08-17T16:52:11.372Z,3.45
2022-08-17T16:54:43.748Z,3.28
2022-08-17T16:57:13.032Z,3.28
2022-08-17T16:59:44.970Z,3.33
2022-08-17T17:02:16.747Z,3.47
2022-08-17T17:04:51.739Z,3.50
2022-08-17T17:07:41.761Z,3.75
2022-08-17T17:10:15.341Z,3.53
2022-08-17T17:13:01.318Z,3.45
2022-08-17T17:15:41.550Z,3.45
2022-08-17T17:18:12.751Z,3.67
2022-08-17T17:20:47.501Z,3.08
2022-08-17T17:23:28.569Z,3.55
2022-08-17T17:26:04.554Z,3.50
2022-08-17T17:28:44.311Z,3.47
2022-08-17T17:31:17.448Z,3.53
2022-08-17T17:33:49.050Z,3.30
2022-08-17T17:36:26.870Z,3.33
2022-08-17T17:39:00.462Z,3.30
2022-08-17T17:41:34.537Z,3.63
2022-08-17T17:44:07.665Z,3.28
2022-08-17T17:46:39.763Z,3.72
2022-08-17T17:49:10.382Z,3.72
2022-08-17T17:52:09.454Z,3.65
2022-08-17T17:54:49.212Z,3.38
2022-08-17T17:57:27.776Z,3.50
2022-08-17T18:00:04.623Z,3.55
2022-08-17T18:02:51.194Z,3.65
2022-08-17T18:05:40.342Z,3.65
2022-08-17T18:08:15.749Z,3.05
2022-08-17T18:10:52.324Z,3.10
2022-08-17T18:13:33.382Z,3.30
2022-08-17T18:16:02.001Z,3.55
2022-08-17T18:18:40.895Z,3.20
2022-08-17T18:21:16.812Z,3.42
2022-08-17T18:23:50.962Z,3.35
2022-08-17T18:26:47.036Z,3.40
2022-08-17T18:29:32.451Z,3.25
2022-08-17T18:32:40.178Z,3.67
2022-08-17T18:35:30.265Z,3.40
2022-08-17T18:38:20.635Z,3.40
2022-08-17T18:41:00.196Z,3.17
2022-08-17T18:43:44.340Z,3.60
2022-08-17T18:46:29.624Z,3.17
2022-08-17T18:49:01.194Z,3.47
2022-08-17T18:51:42.336Z,3.95
2022-08-17T18:54:20.952Z,3.53
2022-08-17T18:56:55.087Z,3.55
2022-08-17T18:59:29.893Z,3.47
2022-08-17T19:02:36.131Z,3.55
2022-08-17T19:05:14.493Z,3.30
2022-08-17T19:07:45.263Z,3.55
2022-08-17T19:10:23.336Z,3.55
2022-08-17T19:13:00.235Z,3.70
2022-08-17T19:15:34.504Z,3.53
2022-08-17T19:18:15.098Z,3.80
2022-08-17T19:20:47.389Z,3.50
2022-08-17T19:23:21.493Z,3.85
2022-08-17T19:25:52.509Z,3.80
2022-08-17T19:28:24.280Z,3.47
2022-08-17T19:30:57.858Z,3.65
2022-08-17T19:33:28.019Z,3.35
2022-08-17T19:36:05.950Z,3.72
2022-08-17T19:38:43.500Z,3.70
2022-08-17T19:41:19.034Z,3.58
2022-08-17T19:44:00.276Z,3.38
2022-08-17T19:46:35.816Z,3.75
2022-08-17T19:49:14.700Z,3.70
2022-08-17T19:51:52.122Z,4.18
2022-08-17T19:54:31.097Z,3.67
2022-08-17T19:57:10.691Z,3.28
2022-08-17T19:59:51.992Z,3.70
2022-08-17T20:02:35.091Z,3.85
2022-08-17T20:05:12.119Z,3.63
2022-08-17T20:07:45.745Z,3.65
2022-08-17T20:10:21.738Z,3.60
2022-08-17T20:12:53.235Z,3.40
2022-08-17T20:15:29.697Z,3.72
2022-08-17T20:18:02.348Z,3.70
2022-08-17T20:20:37.884Z,3.70
2022-08-17T20:23:13.214Z,3.35
2022-08-17T20:25:49.178Z,3.55
2022-08-17T20:28:25.023Z,3.70
2022-08-17T20:30:53.773Z,3.80
2022-08-17T20:33:28.635Z,3.25
2022-08-17T20:36:24.170Z,3.63
2022-08-17T20:38:56.275Z,3.60
2022-08-17T20:41:25.946Z,3.80
2022-08-17T20:44:05.907Z,3.65
2022-08-17T20:46:47.555Z,3.47
2022-08-17T20:49:23.695Z,4.10
2022-08-17T20:52:00.917Z,3.80
2022-08-17T20:54:47.865Z,3.75
2022-08-17T20:57:49.131Z,3.55
2022-08-17T21:00:46.825Z,3.63
2022-08-17T21:03:51.055Z,3.38
2022-08-17T21:06:23.164Z,3.50
2022-08-17T21:08:57.749Z,3.60
2022-08-17T21:12:02.765Z,3.95
2022-08-17T21:15:02.982Z,3.75
2022-08-17T21:17:42.099Z,4.07
2022-08-17T21:20:26.317Z,3.65
2022-08-17T21:23:17.297Z,3.78
2022-08-17T21:26:10.524Z,3.40
2022-08-17T21:29:00.709Z,3.88
2022-08-17T21:31:35.974Z,3.78
2022-08-17T21:34:28.242Z,3.75
2022-08-17T21:36:57.864Z,3.20
2022-08-17T21:39:33.646Z,3.70
2022-08-17T21:42:05.884Z,3.47
2022-08-17T21:44:36.568Z,3.45
2022-08-17T21:47:19.362Z,3.55
2022-08-17T21:49:47.872Z,3.60
2022-08-17T21:52:19.387Z,3.42
2022-08-17T21:54:52.210Z,3.75
2022-08-17T21:57:24.431Z,3.65
2022-08-17T21:59:56.239Z,3.95
2022-08-17T22:02:28.350Z,3.88
2022-08-17T22:04:58.711Z,3.70
2022-08-17T22:07:40.831Z,3.75
2022-08-17T22:10:27.037Z,3.97
2022-08-17T22:13:16.617Z,3.78
2022-08-17T22:15:48.552Z,3.60
2022-08-17T22:18:22.368Z,4.07
2022-08-17T22:20:52.797Z,3.40
2022-08-17T22:23:45.284Z,4.03
2022-08-17T22:26:16.671Z,4.07
2022-08-17T22:28:49.508Z,3.83
2022-08-17T22:31:19.278Z,4.40
2022-08-17T22:33:49.502Z,4.22
2022-08-17T22:36:29.229Z,4.15
2022-08-17T22:38:59.292Z,3.60
2022-08-17T22:41:40.676Z,3.90
2022-08-17T22:44:18.254Z,3.80
2022-08-17T22:46:54.577Z,3.60
2022-08-17T22:49:29.311Z,3.80
2022-08-17T22:52:18.610Z,3.78
2022-08-17T22:55:09.398Z,3.95
2022-08-17T22:57:55.580Z,4.10
2022-08-17T23:00:34.807Z,3.90
2022-08-17T23:03:12.672Z,3.83
2022-08-17T23:05:43.634Z,4.22
2022-08-17T23:08:12.915Z,3.70
2022-08-17T23:10:42.494Z,4.00
2022-08-17T23:13:12.903Z,4.28
2022-08-17T23:15:43.184Z,3.85
2022-08-17T23:18:11.558Z,4.10
2022-08-17T23:20:42.467Z,3.88
2022-08-17T23:23:13.958Z,4.00
2022-08-17T23:25:44.572Z,3.72
2022-08-17T23:28:13.199Z,3.75
2022-08-17T23:30:44.697Z,3.78
2022-08-17T23:33:21.384Z,4.15
2022-08-17T23:35:49.938Z,3.78
2022-08-17T23:38:18.273Z,4.05
2022-08-17T23:40:46.798Z,3.55
2022-08-17T23:43:25.370Z,4.10
2022-08-17T23:46:03.710Z,4.30
2022-08-17T23:48:35.592Z,3.95
2022-08-17T23:51:10.684Z,3.58
2022-08-17T23:53:46.342Z,3.95
2022-08-17T23:56:15.529Z,4.05
2022-08-17T23:58:45.405Z,3.97
